Time;durP1;ratioP1;P1;durP2;ratioP2;P2;SDS_P1;SDS_P2;PMS_P1;PMS_P2;Temp;Humidity;BMP_temperature;BMP_pressure;BME280_temperature;BME280_humidity;BME280_pressure;Samples;Min_cycle;Max_cycle;Signal;HPM_P1;HPM_P2
2021/05/10 00:00:20;;;;;;;1.92;1.20;;;;;;;15.49;53.97;102639.91;1763873;81;21176;-45
2021/05/10 00:02:48;;;;;;;1.52;1.42;;;;;;;15.47;54.03;102645.62;1766240;81;21141;-45
2021/05/10 00:05:15;;;;;;;2.35;1.62;;;;;;;15.44;54.16;102646.95;1766212;81;21617;-46
2021/05/10 00:07:43;;;;;;;1.32;1.02;;;;;;;15.43;54.38;102646.08;1764315;80;21605;-45
2021/05/10 00:10:12;;;;;;;1.87;1.20;;;;;;;15.42;54.48;102641.73;1764102;81;21577;-47
2021/05/10 00:12:41;;;;;;;2.70;1.40;;;;;;;15.44;54.58;102643.02;1762275;81;21140;-50
2021/05/10 00:15:11;;;;;;;2.55;1.40;;;;;;;15.43;54.60;102642.61;1776943;80;21600;-50
2021/05/10 00:17:39;;;;;;;2.20;1.30;;;;;;;15.43;54.69;102646.54;1763560;80;21375;-45
2021/05/10 00:20:08;;;;;;;2.55;1.50;;;;;;;15.42;54.78;102651.31;1764508;81;21160;-48
2021/05/10 00:22:36;;;;;;;2.70;1.60;;;;;;;15.41;54.92;102645.66;1765295;81;21199;-47
2021/05/10 00:25:06;;;;;;;1.72;1.45;;;;;;;15.40;55.02;102642.59;1763328;81;21577;-45
2021/05/10 00:27:35;;;;;;;1.50;1.37;;;;;;;15.41;55.16;102639.10;1763123;81;21140;-49
2021/05/10 00:30:06;;;;;;;2.35;1.20;;;;;;;15.42;55.19;102639.52;1762432;81;21149;-45
2021/05/10 00:32:34;;;;;;;1.70;1.30;;;;;;;15.41;55.21;102637.32;1763278;81;21141;-48
2021/05/10 00:35:05;;;;;;;2.45;1.50;;;;;;;15.42;55.25;102638.20;1762889;81;21161;-48
2021/05/10 00:37:32;;;;;;;3.62;1.40;;;;;;;15.41;55.27;102631.23;1762998;81;21298;-47
2021/05/10 00:40:00;;;;;;;1.27;1.15;;;;;;;15.39;55.35;102633.00;1759050;81;21352;-46
2021/05/10 00:42:28;;;;;;;1.60;1.47;;;;;;;15.38;55.44;102633.87;1766014;81;21173;-46
2021/05/10 00:44:57;;;;;;;2.87;1.40;;;;;;;15.38;55.56;102637.81;1763520;81;21145;-47
2021/05/10 00:47:26;;;;;;;1.87;1.60;;;;;;;15.37;55.60;102636.09;1763917;80;21164;-46
2021/05/10 00:49:54;;;;;;;1.45;1.35;;;;;;;15.38;55.58;102640.44;1753281;81;21299;-48
2021/05/10 00:52:25;;;;;;;1.80;1.50;;;;;;;15.38;55.56;102637.81;1764470;80;21317;-47
2021/05/10 00:54:57;;;;;;;1.60;1.40;;;;;;;15.36;55.61;102638.27;1766019;81;21156;-47
2021/05/10 00:58:06;;;;;;;2.05;1.50;;;;;;;15.34;55.68;102628.24;1758801;81;21334;-44
2021/05/10 01:00:49;;;;;;;3.15;1.50;;;;;;;15.34;55.83;102640.05;1755209;81;21633;-45
2021/05/10 01:03:41;;;;;;;2.00;1.72;;;;;;;15.33;55.99;102640.95;1746636;81;21206;-50
2021/05/10 01:06:08;;;;;;;3.75;1.50;;;;;;;15.32;55.97;102636.57;1748235;81;21179;-45
2021/05/10 01:08:37;;;;;;;2.08;1.52;;;;;;;15.32;56.00;102633.95;1747834;81;21205;-47
2021/05/10 01:11:05;;;;;;;4.90;1.90;;;;;;;15.30;56.06;102626.54;1746397;81;21573;-45
2021/05/10 01:13:33;;;;;;;1.87;1.62;;;;;;;15.28;56.12;102629.63;1750083;81;21725;-45
2021/05/10 01:16:00;;;;;;;2.40;1.85;;;;;;;15.26;56.27;102628.77;1729622;81;21760;-49
2021/05/10 01:18:29;;;;;;;1.87;1.57;;;;;;;15.27;56.37;102621.34;1752048;81;21299;-49
2021/05/10 01:20:57;;;;;;;4.17;1.80;;;;;;;15.28;56.39;102620.45;1752440;81;21165;-48
2021/05/10 01:23:25;;;;;;;2.25;1.45;;;;;;;15.26;56.40;102619.16;1730640;81;21152;-46
2021/05/10 01:25:53;;;;;;;2.95;2.10;;;;;;;15.26;56.38;102622.22;1757384;81;21141;-45
2021/05/10 01:28:21;;;;;;;2.15;1.75;;;;;;;15.25;56.38;102622.66;1757526;81;21307;-47
2021/05/10 01:30:50;;;;;;;3.55;1.52;;;;;;;15.23;56.55;102611.31;1750538;81;21156;-45
2021/05/10 01:33:19;;;;;;;3.90;2.52;;;;;;;15.22;56.60;102612.66;1750853;81;21228;-45
2021/05/10 01:35:49;;;;;;;2.02;1.72;;;;;;;15.21;56.69;102610.47;1751110;81;22172;-48
2021/05/10 01:38:18;;;;;;;1.70;1.60;;;;;;;15.21;56.67;102616.14;1752928;81;21160;-49
2021/05/10 01:40:49;;;;;;;3.12;1.47;;;;;;;15.20;56.78;102620.98;1751691;81;21125;-51
2021/05/10 01:43:18;;;;;;;;;;;;;;;15.20;56.82;102613.11;1757914;81;21180;-48
2021/05/10 01:45:48;;;;;;;1.80;1.70;;;;;;;15.18;56.86;102615.77;1773781;80;20177;-46
2021/05/10 01:48:16;;;;;;;1.77;1.42;;;;;;;15.15;56.94;102612.28;1772371;80;21132;-47
2021/05/10 01:50:46;;;;;;;1.77;1.65;;;;;;;15.14;57.04;102613.19;1774336;80;21573;-50
2021/05/10 01:53:14;;;;;;;4.25;1.80;;;;;;;15.13;57.15;102612.74;1774363;80;21568;-49
2021/05/10 01:55:43;;;;;;;2.17;1.60;;;;;;;15.14;57.12;102614.50;1772671;80;21601;-47
2021/05/10 01:58:11;;;;;;;2.70;1.60;;;;;;;15.15;57.17;102614.91;1771504;80;21318;-50
2021/05/10 02:00:46;;;;;;;1.70;1.60;;;;;;;15.14;57.19;102614.50;1770123;80;21148;-44
2021/05/10 02:03:16;;;;;;;3.60;1.50;;;;;;;15.12;57.27;102614.95;1741107;81;21158;-50
2021/05/10 02:05:45;;;;;;;1.95;1.52;;;;;;;15.11;57.41;102615.83;1736584;82;21194;-45
2021/05/10 02:08:13;;;;;;;2.77;1.70;;;;;;;15.10;57.54;102618.04;1738227;82;21132;-47
2021/05/10 02:10:48;;;;;;;2.30;1.80;;;;;;;15.11;57.52;102615.83;1737529;82;21296;-45
2021/05/10 02:13:21;;;;;;;3.30;1.85;;;;;;;15.11;57.48;102610.58;1733530;82;21190;-48
2021/05/10 02:15:57;;;;;;;1.75;1.65;;;;;;;15.11;57.43;102611.89;1728887;82;21139;-49
2021/05/10 02:18:35;;;;;;;2.75;1.98;;;;;;;15.11;57.43;102607.95;1771063;79;24184;-45
2021/05/10 02:21:04;;;;;;;4.05;1.77;;;;;;;15.03;57.48;102613.30;1742409;82;21145;-45
2021/05/10 02:23:34;;;;;;;1.37;1.27;;;;;;;15.00;57.61;102612.47;1736324;82;21200;-48
2021/05/10 02:26:05;;;;;;;3.40;1.75;;;;;;;14.99;57.77;102614.65;1735890;82;21160;-48
2021/05/10 02:28:33;;;;;;;5.03;1.90;;;;;;;14.99;57.83;102615.95;1663371;86;21200;-45
2021/05/10 02:31:02;;;;;;;2.27;1.85;;;;;;;14.99;57.88;102617.27;1666210;86;21224;-49
2021/05/10 02:33:33;;;;;;;2.08;1.87;;;;;;;14.98;57.87;102623.41;1666236;86;21346;-45
2021/05/10 02:36:08;;;;;;;2.67;2.10;;;;;;;15.01;58.04;102624.24;1751493;79;28100;-48
2021/05/10 02:38:35;;;;;;;3.05;1.80;;;;;;;15.01;58.13;102629.92;1741476;82;21156;-45
2021/05/10 02:41:03;;;;;;;1.82;1.72;;;;;;;15.06;58.07;102628.13;1741138;82;21655;-44
2021/05/10 02:43:31;;;;;;;6.10;2.40;;;;;;;15.04;58.11;102635.14;1741125;82;21101;-48
2021/05/10 02:45:59;;;;;;;1.87;1.57;;;;;;;15.03;58.15;102637.33;1727877;82;21576;-46
2021/05/10 02:48:28;;;;;;;2.15;1.87;;;;;;;15.02;58.19;102640.84;1740521;82;21228;-48
2021/05/10 02:50:56;;;;;;;3.50;1.92;;;;;;;15.01;58.22;102641.28;1737793;82;21164;-46
2021/05/10 02:53:24;;;;;;;2.22;2.02;;;;;;;15.02;58.19;102643.47;1743887;82;21589;-49
2021/05/10 02:55:51;;;;;;;3.60;1.70;;;;;;;15.00;58.21;102642.16;1740307;82;21156;-48
2021/05/10 02:58:19;;;;;;;1.98;1.70;;;;;;;15.00;58.20;102646.55;1741117;82;21155;-50
2021/05/10 03:00:47;;;;;;;2.47;1.70;;;;;;;15.00;58.15;102646.55;1740739;80;21164;-49
2021/05/10 03:03:16;;;;;;;3.87;2.17;;;;;;;14.99;58.17;102646.98;1728469;82;21188;-47
2021/05/10 03:05:45;;;;;;;2.08;1.40;;;;;;;15.00;58.15;102649.17;1739844;82;21152;-46
2021/05/10 03:08:13;;;;;;;2.00;1.80;;;;;;;15.00;58.05;102647.39;1741121;82;21156;-45
2021/05/10 03:10:41;;;;;;;2.15;1.70;;;;;;;15.01;57.89;102651.77;1737031;82;21173;-46
2021/05/10 03:13:10;;;;;;;2.35;2.15;;;;;;;15.01;57.71;102650.89;1730447;82;21143;-48
2021/05/10 03:15:38;;;;;;;3.65;1.75;;;;;;;15.03;57.84;102659.61;1737697;82;21283;-47
2021/05/10 03:18:06;;;;;;;2.37;1.65;;;;;;;15.10;57.75;102661.30;1741076;82;21116;-48
2021/05/10 03:20:36;;;;;;;1.90;1.72;;;;;;;15.19;57.59;102659.88;1739502;82;21160;-46
2021/05/10 03:23:04;;;;;;;2.25;2.02;;;;;;;15.33;57.13;102661.94;1738530;82;21160;-46
2021/05/10 03:25:34;;;;;;;1.90;1.70;;;;;;;15.53;56.64;102667.84;1737711;82;21158;-45
2021/05/10 03:28:03;;;;;;;3.05;1.95;;;;;;;15.80;55.86;102661.38;1749003;82;21168;-47
2021/05/10 03:30:31;;;;;;;4.75;1.92;;;;;;;16.15;55.29;102664.39;1741053;82;21153;-48
2021/05/10 03:32:59;;;;;;;2.20;1.75;;;;;;;16.63;54.31;102670.69;1738696;82;21129;-48
2021/05/10 03:35:27;;;;;;;5.35;1.52;;;;;;;17.20;52.72;102667.03;1739496;81;21168;-46
2021/05/10 03:37:55;;;;;;;2.00;1.52;;;;;;;17.81;51.26;102664.92;1728731;82;21148;-44
2021/05/10 03:40:23;;;;;;;2.22;1.95;;;;;;;18.38;49.62;102665.84;1747540;82;21338;-44
2021/05/10 03:42:53;;;;;;;1.98;1.50;;;;;;;18.77;48.50;102675.44;1741835;82;21117;-49
2021/05/10 03:45:21;;;;;;;1.62;1.42;;;;;;;19.12;47.47;102676.71;1741399;82;21164;-45
2021/05/10 03:47:49;;;;;;;3.70;1.50;;;;;;;19.43;46.16;102680.25;1744937;82;21290;-50
2021/05/10 03:50:19;;;;;;;1.90;1.70;;;;;;;19.60;45.36;102684.22;1739609;81;21164;-50
2021/05/10 03:52:49;;;;;;;3.58;1.57;;;;;;;19.56;44.93;102687.85;1740491;82;21196;-48
2021/05/10 03:55:19;;;;;;;6.22;2.45;;;;;;;19.37;44.94;102690.14;1741202;82;21148;-48
2021/05/10 03:57:47;;;;;;;3.27;2.98;;;;;;;19.09;45.20;102691.73;1741335;82;21148;-48
2021/05/10 04:00:17;;;;;;;3.10;2.00;;;;;;;18.78;45.75;102687.70;1740499;82;21124;-47
2021/05/10 04:02:45;;;;;;;2.33;2.00;;;;;;;18.49;46.32;102683.59;1738781;82;21137;-47
2021/05/10 04:07:55;;;;;;;2.52;1.90;;;;;;;17.98;47.23;102699.23;1738475;82;21148;-46
2021/05/10 04:15:35;;;;;;;2.62;1.60;;;;;;;17.29;48.06;102702.35;1727987;82;21164;-49
2021/05/10 04:18:04;;;;;;;1.72;1.62;;;;;;;17.06;48.65;102706.72;1741328;82;21140;-50
2021/05/10 04:20:32;;;;;;;3.00;2.33;;;;;;;16.87;49.28;102710.58;1741319;82;21164;-49
2021/05/10 04:23:01;;;;;;;2.80;1.67;;;;;;;16.66;49.84;102711.36;1737205;82;21133;-46
2021/05/10 04:25:29;;;;;;;2.00;1.70;;;;;;;16.49;50.50;102709.40;1741282;82;21168;-45
2021/05/10 04:27:57;;;;;;;3.83;1.80;;;;;;;16.41;50.98;102706.89;1741275;82;21180;-48
2021/05/10 04:30:25;;;;;;;2.15;1.60;;;;;;;16.36;51.36;102706.55;1738799;82;21181;-47
2021/05/10 04:32:58;;;;;;;2.12;1.90;;;;;;;16.33;51.40;102714.03;1737777;82;21719;-46
2021/05/10 04:35:26;;;;;;;1.72;1.60;;;;;;;16.32;51.43;102707.48;1738501;81;21141;-48
2021/05/10 04:37:55;;;;;;;1.80;1.40;;;;;;;16.30;51.45;102704.42;1737853;82;21148;-46
2021/05/10 04:40:23;;;;;;;3.00;2.00;;;;;;;16.30;51.33;102696.55;1738720;82;21184;-51
2021/05/10 04:42:51;;;;;;;3.55;1.65;;;;;;;16.30;51.30;102697.86;1738792;82;21180;-49
2021/05/10 04:45:19;;;;;;;5.33;1.70;;;;;;;16.28;50.94;102686.94;1736620;82;21144;-49
2021/05/10 04:47:47;;;;;;;2.52;1.85;;;;;;;16.27;50.56;102693.98;1740577;82;21224;-49
2021/05/10 04:50:15;;;;;;;1.60;1.37;;;;;;;16.25;50.30;102682.62;1738247;82;21157;-50
2021/05/10 04:52:44;;;;;;;1.82;1.30;;;;;;;16.24;50.26;102688.75;1740032;82;21160;-49
2021/05/10 04:55:13;;;;;;;2.95;1.55;;;;;;;16.24;50.48;102691.37;1740649;82;21585;-48
2021/05/10 04:57:40;;;;;;;1.90;1.40;;;;;;;16.25;50.45;102693.13;1741222;82;21152;-46
2021/05/10 05:00:11;;;;;;;1.62;1.20;;;;;;;16.26;50.25;102694.86;1741237;82;21120;-46
2021/05/10 05:02:39;;;;;;;1.57;1.47;;;;;;;16.30;50.05;102691.29;1739903;82;21589;-46
2021/05/10 05:05:09;;;;;;;5.47;1.75;;;;;;;16.34;49.74;102686.00;1736033;82;21600;-48
2021/05/10 05:07:41;;;;;;;2.65;1.27;;;;;;;16.39;49.70;102689.41;1737825;82;21141;-49
2021/05/10 05:10:09;;;;;;;;;;;;;;;16.41;49.70;102683.69;1740842;82;21160;-46
2021/05/10 05:12:38;;;;;;;1.40;1.30;;;;;;;16.44;49.75;102679.72;1734816;82;20160;-50
2021/05/10 05:15:07;;;;;;;2.05;1.45;;;;;;;16.47;49.70;102677.02;1739847;82;21317;-46
2021/05/10 05:17:35;;;;;;;4.08;1.30;;;;;;;16.49;49.53;102683.13;1740681;82;21188;-49
2021/05/10 05:20:05;;;;;;;1.42;1.20;;;;;;;16.54;49.26;102686.59;1741319;82;21145;-47
2021/05/10 05:22:34;;;;;;;2.15;1.60;;;;;;;16.59;48.60;102688.72;1733735;82;21592;-44
2021/05/10 05:25:04;;;;;;;1.90;1.20;;;;;;;16.63;48.54;102691.72;1742478;81;21145;-47
2021/05/10 05:27:32;;;;;;;2.70;1.32;;;;;;;16.79;48.94;102693.19;1724795;82;21656;-44
2021/05/10 05:30:00;;;;;;;1.37;1.25;;;;;;;17.19;48.36;102699.48;1740489;82;21148;-48
2021/05/10 05:32:28;;;;;;;8.40;2.10;;;;;;;17.81;47.27;102700.47;1741236;80;21302;-46
2021/05/10 05:34:57;;;;;;;1.35;1.25;;;;;;;18.54;46.03;102708.09;1741142;81;21183;-46
2021/05/10 05:37:25;;;;;;;1.87;1.10;;;;;;;19.37;44.25;102708.63;1725075;82;21125;-48
2021/05/10 05:39:53;;;;;;;1.95;1.32;;;;;;;20.20;42.17;102699.57;1739833;82;21195;-48
2021/05/10 05:42:21;;;;;;;1.60;1.20;;;;;;;20.92;40.11;102698.52;1740531;82;21609;-47
2021/05/10 05:44:53;;;;;;;1.62;1.10;;;;;;;21.59;38.63;102694.39;1741314;82;21173;-48
2021/05/10 05:47:28;;;;;;;3.10;1.60;;;;;;;22.21;37.28;102694.67;1741191;82;21144;-45
2021/05/10 05:49:57;;;;;;;1.32;1.22;;;;;;;22.81;35.96;102699.77;1741163;82;21299;-49
2021/05/10 05:52:25;;;;;;;1.10;1.00;;;;;;;23.39;34.84;102698.98;1724690;82;21153;-46
2021/05/10 05:54:53;;;;;;;1.40;1.30;;;;;;;23.92;33.88;102696.10;1737471;82;21589;-49
2021/05/10 05:57:21;;;;;;;1.47;1.25;;;;;;;24.41;32.52;102699.09;1736724;82;21156;-48
2021/05/10 05:59:49;;;;;;;2.08;1.10;;;;;;;24.74;31.59;102696.13;1742610;80;21168;-48
2021/05/10 06:02:18;;;;;;;1.17;0.98;;;;;;;24.99;30.98;102695.28;1740884;82;21153;-47
2021/05/10 06:04:45;;;;;;;1.47;1.22;;;;;;;25.23;30.56;102692.67;1730387;82;21576;-47
2021/05/10 06:07:14;;;;;;;1.85;1.20;;;;;;;25.83;29.60;102688.09;1738794;82;21577;-50
2021/05/10 06:09:42;;;;;;;1.67;1.20;;;;;;;25.83;29.60;102688.09;1740520;81;21173;-48
2021/05/10 06:12:12;;;;;;;1.27;1.02;;;;;;;26.14;29.12;102694.41;1737116;82;21286;-45
2021/05/10 06:14:40;;;;;;;1.60;1.20;;;;;;;26.40;28.65;102691.11;1741315;82;21156;-48
2021/05/10 06:17:10;;;;;;;3.50;1.35;;;;;;;26.63;28.28;102693.31;1741188;82;21326;-45
2021/05/10 06:19:39;;;;;;;;;;;;;;;26.82;28.21;102694.45;1742357;82;21561;-45
2021/05/10 06:22:06;;;;;;;3.77;1.25;;;;;;;26.98;27.89;102690.78;1737934;82;20122;-50
2021/05/10 06:24:34;;;;;;;1.90;1.20;;;;;;;27.10;27.68;102686.53;1738129;82;21132;-48
2021/05/10 06:27:03;;;;;;;1.10;1.10;;;;;;;27.16;27.36;102688.33;1738210;82;21621;-45
2021/05/10 06:29:31;;;;;;;7.28;1.72;;;;;;;27.18;27.16;102689.09;1738032;82;21156;-48
2021/05/10 06:31:59;;;;;;;12.45;2.70;;;;;;;27.12;26.87;102691.31;1738773;81;21589;-48
2021/05/10 06:34:27;;;;;;;3.50;1.92;;;;;;;27.03;27.15;102691.85;1740894;82;21581;-48
2021/05/10 06:36:55;;;;;;;9.18;1.92;;;;;;;26.97;26.97;102698.91;1744610;82;21160;-46
2021/05/10 06:39:25;;;;;;;2.45;1.70;;;;;;;26.88;27.14;102696.77;1738418;82;21152;-45
2021/05/10 06:41:53;;;;;;;3.02;2.42;;;;;;;26.77;27.26;102694.73;1738467;81;21176;-45
2021/05/10 06:44:22;;;;;;;5.78;2.85;;;;;;;26.69;27.11;102694.78;1727926;82;21298;-47
2021/05/10 06:46:50;;;;;;;2.40;1.62;;;;;;;26.57;26.85;102689.20;1741103;82;21164;-50
2021/05/10 06:49:20;;;;;;;1.70;1.45;;;;;;;26.40;27.17;102691.11;1739926;82;21140;-49
2021/05/10 06:51:48;;;;;;;2.00;1.60;;;;;;;26.32;26.86;102688.02;1737917;82;21558;-45
2021/05/10 06:54:16;;;;;;;1.65;1.32;;;;;;;26.24;26.51;102687.59;1738295;81;21168;-48
2021/05/10 06:56:44;;;;;;;3.47;1.72;;;;;;;26.20;26.45;102693.59;1738021;82;21295;-45
2021/05/10 06:59:12;;;;;;;3.72;1.77;;;;;;;26.26;26.45;102685.70;1738022;82;21152;-46
2021/05/10 07:01:40;;;;;;;4.62;1.62;;;;;;;26.43;27.41;102693.61;1738546;82;21573;-49
2021/05/10 07:04:09;;;;;;;1.57;1.47;;;;;;;26.58;27.59;102694.07;1737220;82;21176;-51
2021/05/10 07:06:37;;;;;;;4.75;1.90;;;;;;;26.78;26.81;102688.45;1740682;82;21576;-49
2021/05/10 07:09:05;;;;;;;3.40;1.57;;;;;;;27.03;26.94;102690.05;1738133;82;21176;-46
2021/05/10 07:11:35;;;;;;;3.30;1.32;;;;;;;27.15;26.99;102690.64;1737578;82;21161;-47
2021/05/10 07:14:04;;;;;;;1.57;1.10;;;;;;;27.19;27.01;102694.84;1744738;82;21585;-45
2021/05/10 07:19:11;;;;;;;2.87;1.50;;;;;;;27.26;27.76;102690.86;1771254;79;23625;-47
2021/05/10 07:21:40;;;;;;;1.57;1.22;;;;;;;27.18;28.10;102691.77;1738755;82;21153;-45
2021/05/10 07:24:08;;;;;;;3.87;1.70;;;;;;;27.24;27.71;102695.91;1735079;82;21180;-51
2021/05/10 07:26:37;;;;;;;1.42;1.20;;;;;;;27.22;27.32;102690.63;1742091;82;21157;-48
2021/05/10 07:29:05;;;;;;;3.08;1.77;;;;;;;27.10;26.87;102688.70;1735399;82;21290;-45
2021/05/10 07:31:33;;;;;;;1.95;1.57;;;;;;;27.01;26.60;102686.61;1737319;82;21790;-47
2021/05/10 07:34:01;;;;;;;2.20;2.00;;;;;;;27.03;28.08;102689.18;1732135;82;21160;-47
2021/05/10 07:36:29;;;;;;;2.00;1.70;;;;;;;26.93;28.69;102696.90;1737970;82;21581;-45
2021/05/10 07:38:57;;;;;;;3.40;1.60;;;;;;;26.76;29.35;102699.70;1741077;82;21160;-47
2021/05/10 07:41:25;;;;;;;3.27;1.90;;;;;;;26.52;29.43;102696.60;1734646;82;21722;-45
2021/05/10 07:43:53;;;;;;;3.05;1.85;;;;;;;26.25;30.39;102693.34;1737071;82;21585;-52
2021/05/10 07:46:21;;;;;;;3.87;2.40;;;;;;;25.94;31.26;102699.97;1732043;82;21172;-48
2021/05/10 07:48:50;;;;;;;3.40;2.02;;;;;;;25.60;31.63;102696.47;1740075;82;21121;-45
2021/05/10 07:51:18;;;;;;;3.67;1.80;;;;;;;25.29;31.88;102700.34;1738888;82;21164;-47
2021/05/10 07:53:46;;;;;;;1.80;1.70;;;;;;;25.01;32.26;102698.27;1735248;82;21144;-49
2021/05/10 07:56:14;;;;;;;2.20;1.92;;;;;;;24.73;32.47;102693.06;1742600;82;21584;-49
2021/05/10 07:58:44;;;;;;;4.35;1.55;;;;;;;24.45;32.36;102694.88;1735603;82;21720;-45
2021/05/10 08:01:11;;;;;;;3.35;1.30;;;;;;;24.21;33.64;102698.25;1737293;82;21184;-46
2021/05/10 08:03:40;;;;;;;1.52;1.37;;;;;;;23.98;35.10;102703.79;1734457;82;21175;-45
2021/05/10 08:06:09;;;;;;;2.15;1.95;;;;;;;23.80;35.38;102704.62;1744073;82;21161;-46
2021/05/10 08:08:37;;;;;;;1.98;1.50;;;;;;;23.63;34.57;102699.23;1731992;82;21144;-48
2021/05/10 08:11:05;;;;;;;3.02;1.40;;;;;;;23.46;35.21;102704.44;1743088;82;21164;-44
2021/05/10 08:13:34;;;;;;;1.92;1.57;;;;;;;23.31;36.28;102705.07;1736224;82;21105;-45
2021/05/10 08:16:02;;;;;;;3.22;1.47;;;;;;;23.19;36.65;102702.95;1738226;82;21589;-47
2021/05/10 08:18:30;;;;;;;2.75;1.35;;;;;;;23.08;37.29;102702.58;1726601;82;21102;-44
2021/05/10 08:20:59;;;;;;;1.20;1.10;;;;;;;23.00;37.21;102703.38;1726463;82;21173;-44
2021/05/10 08:23:27;;;;;;;2.33;1.37;;;;;;;22.93;37.22;102700.57;1727638;82;21145;-48
2021/05/10 08:25:56;;;;;;;2.27;1.42;;;;;;;22.88;37.86;102703.87;1732913;82;21287;-49
2021/05/10 08:28:25;;;;;;;4.03;1.27;;;;;;;22.81;38.22;102698.44;1728720;82;21143;-47
2021/05/10 08:30:54;;;;;;;1.40;1.20;;;;;;;22.74;37.29;102690.32;1722264;82;21149;-49
2021/05/10 08:33:21;;;;;;;1.30;1.20;;;;;;;22.68;36.98;102690.13;1724454;81;21421;-49
2021/05/10 08:35:51;;;;;;;2.02;1.40;;;;;;;22.68;38.15;102687.92;1725427;82;21105;-51
2021/05/10 08:38:19;;;;;;;2.58;1.42;;;;;;;22.63;38.84;102687.65;1723911;82;21193;-47
2021/05/10 08:40:50;;;;;;;3.72;1.32;;;;;;;22.58;39.19;102680.36;1727379;82;21201;-49
2021/05/10 08:43:20;;;;;;;1.95;1.35;;;;;;;22.53;39.27;102680.97;1720855;82;21303;-52
2021/05/10 08:45:54;;;;;;;1.72;1.25;;;;;;;22.50;39.64;102685.05;1688402;84;21662;-50
2021/05/10 08:48:22;;;;;;;1.75;1.32;;;;;;;22.48;39.59;102678.11;1659575;85;21226;-47
2021/05/10 08:50:56;;;;;;;1.67;1.40;;;;;;;22.50;39.87;102674.44;1796137;79;28183;-47
2021/05/10 08:53:37;;;;;;;2.17;1.22;;;;;;;22.46;39.96;102668.86;1750564;80;21557;-45
2021/05/10 08:56:06;;;;;;;3.10;1.27;;;;;;;22.51;40.15;102673.53;1780224;80;21166;-47
2021/05/10 08:58:42;;;;;;;2.12;1.12;;;;;;;22.51;40.30;102673.53;1776064;80;21553;-48
2021/05/10 09:01:12;;;;;;;1.30;1.20;;;;;;;22.51;40.31;102677.52;1779985;80;21131;-45
2021/05/10 09:03:45;;;;;;;1.50;1.40;;;;;;;22.49;40.28;102671.41;1778590;80;21147;-46
2021/05/10 09:06:15;;;;;;;1.37;1.27;;;;;;;22.46;40.16;102680.80;1776672;80;21293;-46
2021/05/10 09:08:45;;;;;;;2.25;1.60;;;;;;;22.42;39.96;102671.73;1777118;80;21143;-46
2021/05/10 09:11:17;;;;;;;1.85;1.40;;;;;;;22.39;40.19;102669.19;1776712;80;21131;-46
2021/05/10 09:13:57;;;;;;;1.82;1.60;;;;;;;22.40;40.49;102669.12;1810208;79;22800;-45
2021/05/10 09:16:26;;;;;;;1.92;1.40;;;;;;;22.34;40.80;102665.39;1776672;80;21183;-48
2021/05/10 09:18:58;;;;;;;1.27;1.17;;;;;;;22.34;40.84;102660.09;1778916;80;21580;-45
2021/05/10 09:21:29;;;;;;;3.25;1.25;;;;;;;22.35;40.92;102665.81;1709347;83;21155;-47
2021/05/10 09:24:00;;;;;;;2.52;1.35;;;;;;;22.36;40.78;102662.21;1709713;83;21249;-44
2021/05/10 09:26:35;;;;;;;1.65;1.30;;;;;;;22.36;40.63;102666.19;1707706;83;21610;-49
2021/05/10 09:29:03;;;;;;;2.37;1.35;;;;;;;22.35;40.87;102668.46;1699434;83;21328;-45
2021/05/10 09:31:32;;;;;;;1.80;1.40;;;;;;;22.34;41.05;102663.23;1679994;84;21194;-45
2021/05/10 09:34:12;;;;;;;2.42;1.42;;;;;;;22.37;41.57;102659.98;1772916;79;22972;-49
2021/05/10 09:36:40;;;;;;;1.42;1.27;;;;;;;22.32;41.71;102663.27;1731732;82;21798;-47
2021/05/10 09:39:37;;;;;;;1.77;1.50;;;;;;;22.32;41.81;102658.41;1741217;82;21549;-46
2021/05/10 09:44:43;;;;;;;2.08;1.40;;;;;;;22.33;42.06;102642.46;1780389;79;23075;-47
2021/05/10 09:47:13;;;;;;;1.60;1.32;;;;;;;22.27;42.08;102646.69;1716460;83;21605;-47
2021/05/10 09:49:50;;;;;;;2.10;1.30;;;;;;;22.24;42.27;102648.13;1713208;83;21396;-45
2021/05/10 09:52:21;;;;;;;2.77;1.20;;;;;;;22.21;42.51;102648.72;1713360;83;21196;-47
2021/05/10 09:54:55;;;;;;;;;;;;;;;22.17;42.75;102641.36;1715916;83;21617;-45
2021/05/10 09:57:29;;;;;;;1.10;1.00;;;;;;;22.21;43.14;102646.07;1819645;77;22935;-48
2021/05/10 10:00:16;;;;;;;1.55;1.20;;;;;;;22.14;43.74;102644.13;1777308;80;21199;-49
2021/05/10 10:02:44;;;;;;;2.52;1.57;;;;;;;22.14;43.96;102642.80;1636089;85;21249;-45
2021/05/10 10:05:13;;;;;;;1.50;1.35;;;;;;;22.15;43.84;102635.71;1652022;85;21332;-51
2021/05/10 10:07:43;;;;;;;1.70;1.20;;;;;;;22.13;43.88;102638.44;1650975;86;21365;-46
2021/05/10 10:10:13;;;;;;;1.82;1.30;;;;;;;22.10;44.17;102635.89;1652016;87;21234;-49
2021/05/10 10:12:43;;;;;;;1.80;1.60;;;;;;;22.07;44.44;102630.69;1649815;87;21182;-50
2021/05/10 10:15:12;;;;;;;2.65;1.67;;;;;;;22.05;44.38;102627.24;1672893;86;21208;-50
2021/05/10 10:17:41;;;;;;;1.82;1.20;;;;;;;22.02;43.95;102616.78;1652123;87;21226;-49
2021/05/10 10:20:12;;;;;;;5.40;1.35;;;;;;;22.01;44.00;102617.69;1673054;86;21236;-48
2021/05/10 10:22:41;;;;;;;2.45;1.47;;;;;;;22.02;44.56;102616.78;1649137;87;21191;-46
2021/05/10 10:25:11;;;;;;;2.15;1.95;;;;;;;22.02;44.66;102603.52;1682797;85;21227;-51
2021/05/10 10:27:41;;;;;;;2.35;2.15;;;;;;;22.04;44.55;102607.42;1651942;87;21186;-47
2021/05/10 10:30:11;;;;;;;3.25;2.37;;;;;;;22.07;44.64;102603.34;1651804;87;21183;-48
2021/05/10 10:32:39;;;;;;;1.75;1.50;;;;;;;22.10;44.59;102600.55;1673067;86;21199;-45
2021/05/10 10:35:16;;;;;;;3.00;2.12;;;;;;;22.16;44.10;102599.84;1792252;79;27949;-50
2021/05/10 10:37:44;;;;;;;1.95;1.50;;;;;;;22.14;44.02;102600.38;1767158;79;21171;-44
2021/05/10 10:40:20;;;;;;;2.05;1.12;;;;;;;22.19;43.76;102601.06;1774813;80;21284;-44
2021/05/10 10:42:49;;;;;;;1.37;1.20;;;;;;;22.21;43.67;102596.56;1766336;80;21755;-51
2021/05/10 10:45:25;;;;;;;1.57;1.40;;;;;;;22.19;43.72;102590.45;1777186;80;21171;-48
2021/05/10 10:47:55;;;;;;;1.90;1.37;;;;;;;22.18;43.98;102588.72;1773406;80;21572;-46
2021/05/10 10:50:25;;;;;;;2.20;1.57;;;;;;;22.19;44.02;102589.59;1772124;80;21162;-44
2021/05/10 10:53:02;;;;;;;1.55;1.35;;;;;;;22.20;44.00;102586.86;1771608;80;21564;-47
2021/05/10 10:55:37;;;;;;;1.50;1.40;;;;;;;22.24;43.93;102585.81;1765647;80;21282;-45
2021/05/10 10:58:22;;;;;;;1.60;1.50;;;;;;;22.27;43.69;102586.15;1767787;80;21199;-49
2021/05/10 11:03:52;;;;;;;3.55;1.50;;;;;;;22.30;43.77;102578.92;1771514;79;22899;-46
2021/05/10 11:06:22;;;;;;;1.50;1.10;;;;;;;22.23;43.82;102580.13;1738914;82;21303;-45
2021/05/10 11:08:55;;;;;;;1.75;1.40;;;;;;;22.19;43.87;102569.24;1717612;82;21283;-49
2021/05/10 11:11:37;;;;;;;1.32;1.05;;;;;;;22.20;43.53;102569.63;1744601;82;21148;-44
2021/05/10 11:14:05;;;;;;;2.80;1.12;;;;;;;22.19;43.42;102566.59;1732179;82;21160;-48
2021/05/10 11:16:51;;;;;;;3.02;1.30;;;;;;;22.23;43.30;102563.34;1684546;82;21144;-49
2021/05/10 11:19:34;;;;;;;3.12;1.50;;;;;;;22.23;43.38;102560.69;1739702;82;21597;-51
2021/05/10 11:22:32;;;;;;;1.92;1.32;;;;;;;22.23;43.16;102561.56;1740243;82;21169;-46
2021/05/10 11:25:39;;;;;;;3.42;1.10;;;;;;;22.22;43.16;102552.31;1737427;82;21156;-49
2021/05/10 11:28:32;;;;;;;3.05;1.42;;;;;;;22.20;43.00;102541.78;1741058;82;21212;-48
2021/05/10 11:31:15;;;;;;;1.70;1.20;;;;;;;22.19;42.77;102545.37;1736879;82;21164;-48
2021/05/10 11:33:58;;;;;;;1.20;1.10;;;;;;;22.19;42.74;102531.25;1819890;79;22878;-49
2021/05/10 11:36:28;;;;;;;6.58;1.40;;;;;;;22.15;42.73;102534.95;1791668;80;21152;-47
2021/05/10 11:39:07;;;;;;;1.75;1.40;;;;;;;22.13;42.63;102533.70;1741671;81;21156;-46
2021/05/10 11:41:44;;;;;;;1.40;1.20;;;;;;;22.11;42.68;102526.28;1747809;81;21147;-47
2021/05/10 11:44:28;;;;;;;0.95;0.82;;;;;;;22.10;42.50;102520.56;1752548;81;21772;-48
2021/05/10 11:46:58;;;;;;;1.75;1.05;;;;;;;22.09;42.43;102516.66;1684009;85;21308;-48
2021/05/10 11:49:33;;;;;;;2.05;1.10;;;;;;;22.07;42.35;102510.55;1683399;85;21195;-48
2021/05/10 11:52:10;;;;;;;1.57;1.10;;;;;;;22.06;42.01;102505.71;1699175;84;21217;-47
2021/05/10 11:54:40;;;;;;;1.40;1.10;;;;;;;22.06;41.99;102500.86;1703669;84;21669;-45
2021/05/10 11:57:10;;;;;;;4.47;1.10;;;;;;;22.08;41.95;102499.88;1703642;84;21156;-45